createdAt,value
2019-05-19T00:02:16.838Z,27.23
2019-05-19T00:04:42.860Z,27.13
2019-05-19T00:07:08.826Z,26.23
2019-05-19T00:09:34.830Z,24.47
2019-05-19T00:12:00.816Z,26.47
2019-05-19T00:14:26.932Z,25.43
2019-05-19T00:16:52.912Z,26.43
2019-05-19T00:19:26.762Z,26.97
2019-05-19T00:21:46.816Z,24.63
2019-05-19T00:24:12.836Z,25.90
2019-05-19T00:26:38.812Z,25.57
2019-05-19T00:29:04.828Z,26.70
2019-05-19T00:31:30.846Z,25.67
2019-05-19T00:33:56.905Z,26.00
2019-05-19T00:36:22.924Z,23.83
2019-05-19T00:38:48.948Z,25.60
2019-05-19T00:41:14.923Z,25.07
2019-05-19T00:43:40.932Z,23.53
2019-05-19T00:46:06.920Z,29.00
2019-05-19T00:48:32.926Z,24.73
2019-05-19T00:50:58.904Z,24.37
2019-05-19T00:53:24.913Z,22.30
2019-05-19T00:55:52.021Z,25.37
2019-05-19T00:58:18.504Z,24.13
2019-05-19T01:00:44.982Z,25.43
2019-05-19T01:03:11.076Z,26.33
2019-05-19T01:05:37.099Z,24.00
2019-05-19T01:08:03.174Z,25.13
2019-05-19T01:10:29.180Z,24.37
2019-05-19T01:12:55.143Z,22.47
2019-05-19T01:15:21.378Z,22.63
2019-05-19T01:17:47.656Z,27.10
2019-05-19T01:20:14.641Z,25.57
2019-05-19T01:22:40.829Z,25.17
2019-05-19T01:25:08.529Z,25.30
2019-05-19T01:27:34.560Z,23.57
2019-05-19T01:30:01.236Z,24.77
2019-05-19T01:32:27.631Z,24.43
2019-05-19T01:34:53.633Z,24.10
2019-05-19T01:37:19.713Z,25.87
2019-05-19T01:39:46.027Z,24.33
2019-05-19T01:42:12.042Z,22.97
2019-05-19T01:44:38.072Z,23.83
2019-05-19T01:47:04.087Z,22.90
2019-05-19T01:49:30.060Z,22.03
2019-05-19T01:51:56.093Z,25.53
2019-05-19T01:54:22.128Z,24.87
2019-05-19T01:56:48.117Z,23.10
2019-05-19T01:59:14.149Z,23.40
2019-05-19T02:01:40.132Z,24.37
2019-05-19T02:04:06.120Z,22.70
2019-05-19T02:06:32.163Z,23.30
2019-05-19T02:08:58.179Z,25.47
2019-05-19T02:11:24.202Z,21.90
2019-05-19T02:13:50.180Z,24.67
2019-05-19T02:16:16.194Z,23.17
2019-05-19T02:18:42.210Z,23.17
2019-05-19T02:21:08.215Z,22.57
2019-05-19T02:23:34.356Z,22.10
2019-05-19T02:26:00.380Z,20.90
2019-05-19T02:28:26.381Z,20.00
2019-05-19T02:30:52.420Z,22.30
2019-05-19T02:33:18.397Z,18.90
2019-05-19T02:35:44.436Z,19.00
2019-05-19T02:38:10.419Z,20.47
2019-05-19T02:40:37.733Z,21.13
2019-05-19T02:43:03.831Z,23.87
2019-05-19T02:45:32.541Z,19.63
2019-05-19T02:48:01.268Z,22.63
2019-05-19T02:50:30.069Z,19.27
2019-05-19T02:52:57.992Z,20.37
2019-05-19T02:55:24.117Z,21.60
2019-05-19T02:57:51.255Z,21.10
2019-05-19T03:00:21.225Z,20.33
2019-05-19T03:02:47.198Z,25.03
2019-05-19T03:05:13.333Z,21.83
2019-05-19T03:07:39.437Z,23.73
2019-05-19T03:10:07.039Z,27.60
2019-05-19T03:12:33.056Z,23.10
2019-05-19T03:14:59.245Z,25.57
2019-05-19T03:17:25.312Z,29.77
2019-05-19T03:19:51.610Z,25.40
2019-05-19T03:22:17.593Z,30.10
2019-05-19T03:24:43.613Z,32.57
2019-05-19T03:27:09.597Z,30.50
2019-05-19T03:29:37.524Z,28.50
2019-05-19T03:32:14.328Z,29.97
2019-05-19T03:34:40.421Z,31.90
2019-05-19T03:37:06.541Z,30.50
2019-05-19T03:39:32.546Z,34.40
2019-05-19T03:41:58.593Z,28.70
2019-05-19T03:44:24.593Z,28.23
2019-05-19T03:46:50.622Z,27.60
2019-05-19T03:49:16.650Z,31.20
2019-05-19T03:51:42.614Z,31.70
2019-05-19T03:54:08.607Z,29.50
2019-05-19T03:56:34.609Z,29.93
2019-05-19T03:59:00.700Z,31.93
2019-05-19T04:01:26.824Z,35.90
2019-05-19T04:03:52.810Z,35.13
2019-05-19T04:06:18.802Z,28.63
2019-05-19T04:08:44.827Z,32.13
2019-05-19T04:11:10.840Z,32.77
2019-05-19T04:13:36.872Z,31.50
2019-05-19T04:16:02.851Z,29.73
2019-05-19T04:18:28.880Z,32.97
2019-05-19T04:20:54.994Z,31.77
2019-05-19T04:23:21.020Z,24.43
2019-05-19T04:25:46.993Z,25.73
2019-05-19T04:28:13.013Z,28.03
2019-05-19T04:30:38.997Z,27.80
2019-05-19T04:33:04.995Z,26.20
2019-05-19T04:35:31.093Z,26.90
2019-05-19T04:37:57.117Z,24.80
2019-05-19T04:40:23.178Z,25.70
2019-05-19T04:42:49.163Z,26.13
2019-05-19T04:45:15.258Z,27.03
2019-05-19T04:47:41.257Z,25.90
2019-05-19T04:50:07.546Z,25.83
2019-05-19T04:52:33.523Z,26.23
2019-05-19T04:54:59.533Z,27.97
2019-05-19T04:57:25.561Z,27.40
2019-05-19T04:59:51.628Z,25.17
2019-05-19T05:02:17.599Z,24.20
2019-05-19T05:04:43.652Z,25.23
2019-05-19T05:07:09.617Z,26.63
2019-05-19T05:09:35.612Z,30.40
2019-05-19T05:12:01.635Z,26.17
2019-05-19T05:14:27.608Z,26.17
2019-05-19T05:16:53.648Z,28.13
2019-05-19T05:19:19.634Z,26.93
2019-05-19T05:21:45.829Z,26.70
2019-05-19T05:24:11.840Z,23.07
2019-05-19T05:26:37.897Z,25.20
2019-05-19T05:29:03.928Z,25.50
2019-05-19T05:31:29.952Z,25.50
2019-05-19T05:33:57.922Z,25.07
2019-05-19T05:36:27.763Z,24.03
2019-05-19T05:38:54.180Z,23.67
2019-05-19T05:41:21.628Z,25.33
2019-05-19T05:43:52.495Z,26.90
2019-05-19T05:46:19.336Z,25.90
2019-05-19T05:48:46.193Z,25.57
2019-05-19T05:51:13.044Z,23.63
2019-05-19T05:53:40.011Z,23.93
2019-05-19T05:56:06.563Z,23.47
2019-05-19T05:58:33.678Z,25.27
2019-05-19T06:01:00.303Z,24.90
2019-05-19T06:03:27.335Z,26.33
2019-05-19T06:05:54.771Z,25.47
2019-05-19T06:08:21.474Z,24.87
2019-05-19T06:10:49.348Z,26.77
2019-05-19T06:13:15.898Z,25.00
2019-05-19T06:15:42.367Z,24.30
2019-05-19T06:18:08.749Z,23.60
2019-05-19T06:20:35.006Z,24.97
2019-05-19T06:23:01.410Z,25.80
2019-05-19T06:25:28.290Z,26.70
2019-05-19T06:27:54.535Z,25.40
2019-05-19T06:30:20.624Z,27.50
2019-05-19T06:32:48.530Z,29.40
2019-05-19T06:35:14.655Z,28.27
2019-05-19T06:37:40.763Z,26.83
2019-05-19T06:40:07.096Z,24.57
2019-05-19T06:42:33.083Z,26.60
2019-05-19T06:44:59.144Z,24.13
2019-05-19T06:47:25.169Z,21.07
2019-05-19T06:49:51.240Z,21.40
2019-05-19T06:52:17.314Z,20.87
2019-05-19T06:54:43.305Z,19.93
2019-05-19T06:57:09.368Z,21.43
2019-05-19T06:59:35.384Z,20.50
2019-05-19T07:02:01.451Z,19.50
2019-05-19T07:04:27.487Z,19.67
2019-05-19T07:06:53.708Z,19.13
2019-05-19T07:09:19.855Z,17.97
2019-05-19T07:11:45.947Z,19.53
2019-05-19T07:14:12.086Z,18.03
2019-05-19T07:16:38.065Z,18.23
2019-05-19T07:19:04.110Z,18.77
2019-05-19T07:21:30.084Z,18.23
2019-05-19T07:23:56.208Z,17.77
2019-05-19T07:26:22.216Z,18.93
2019-05-19T07:28:48.241Z,19.20
2019-05-19T07:31:14.370Z,17.30
2019-05-19T07:33:40.497Z,17.90
2019-05-19T07:36:06.539Z,18.93
2019-05-19T07:38:32.607Z,17.53
2019-05-19T07:40:58.617Z,18.53
2019-05-19T07:43:24.705Z,17.63
2019-05-19T07:45:50.766Z,19.07
2019-05-19T07:48:16.771Z,17.77
2019-05-19T07:50:42.885Z,19.23
2019-05-19T07:53:08.896Z,16.53
2019-05-19T07:55:34.901Z,18.27
2019-05-19T07:58:00.954Z,17.10
2019-05-19T08:00:26.996Z,17.03
2019-05-19T08:02:53.139Z,17.60
2019-05-19T08:05:19.157Z,18.10
2019-05-19T08:07:45.245Z,17.50
2019-05-19T08:10:11.621Z,16.10
2019-05-19T08:12:37.609Z,16.87
2019-05-19T08:15:05.186Z,17.40
2019-05-19T08:17:31.256Z,15.63
2019-05-19T08:19:57.339Z,14.83
2019-05-19T08:22:23.435Z,16.97
2019-05-19T08:24:49.462Z,17.77
2019-05-19T08:27:15.473Z,15.90
2019-05-19T08:29:41.481Z,16.80
2019-05-19T08:32:07.468Z,15.90
2019-05-19T08:34:33.530Z,17.70
2019-05-19T08:36:59.781Z,16.07
2019-05-19T08:39:25.959Z,16.43
2019-05-19T08:41:51.976Z,17.90
2019-05-19T08:44:17.966Z,17.67
2019-05-19T08:46:43.980Z,15.20
2019-05-19T08:49:10.094Z,16.00
2019-05-19T08:51:36.189Z,16.70
2019-05-19T08:54:13.792Z,16.20
2019-05-19T08:56:30.113Z,16.53
2019-05-19T08:58:56.134Z,14.87
2019-05-19T09:01:22.382Z,14.30
2019-05-19T09:03:48.795Z,12.30
2019-05-19T09:06:14.956Z,16.17
2019-05-19T09:08:40.972Z,15.13
2019-05-19T09:11:07.140Z,13.07
2019-05-19T09:13:33.211Z,13.23
2019-05-19T09:15:59.347Z,14.50
2019-05-19T09:18:25.364Z,13.13
2019-05-19T09:20:51.618Z,15.33
2019-05-19T09:23:17.870Z,13.53
2019-05-19T09:25:44.245Z,14.20
2019-05-19T09:28:10.232Z,12.53
2019-05-19T09:30:36.258Z,11.70
2019-05-19T09:33:02.255Z,12.43
2019-05-19T09:35:28.275Z,12.83
2019-05-19T09:37:54.304Z,11.97
2019-05-19T09:40:20.313Z,11.10
2019-05-19T09:42:47.710Z,12.67
2019-05-19T09:45:14.772Z,11.90
2019-05-19T09:47:41.463Z,12.50
2019-05-19T09:50:08.630Z,12.43
2019-05-19T09:52:34.777Z,11.47
2019-05-19T09:55:00.792Z,10.67
2019-05-19T09:57:26.813Z,10.63
2019-05-19T09:59:52.819Z,10.60
2019-05-19T10:02:18.851Z,10.50
2019-05-19T10:04:44.881Z,9.57
2019-05-19T10:07:11.005Z,10.63
2019-05-19T10:10:00.560Z,10.20
2019-05-19T10:12:27.196Z,11.33
2019-05-19T10:14:53.204Z,9.37
2019-05-19T10:17:19.260Z,10.77
2019-05-19T10:19:45.390Z,9.53
2019-05-19T10:22:12.227Z,9.40
2019-05-19T10:24:38.357Z,9.83
2019-05-19T10:27:05.052Z,10.10
2019-05-19T10:29:31.243Z,9.40
2019-05-19T10:31:59.942Z,9.27
2019-05-19T10:34:26.051Z,8.70
2019-05-19T10:36:52.101Z,9.00
2019-05-19T10:39:18.275Z,8.43
2019-05-19T10:41:44.310Z,8.73
2019-05-19T10:44:10.338Z,9.40
2019-05-19T10:46:36.447Z,8.30
2019-05-19T10:49:05.839Z,8.97
2019-05-19T10:51:32.019Z,10.00
2019-05-19T10:53:58.021Z,9.30
2019-05-19T10:56:24.111Z,9.60
2019-05-19T10:58:50.110Z,9.40
2019-05-19T11:01:16.114Z,9.77
2019-05-19T11:03:42.142Z,10.13
2019-05-19T11:06:08.325Z,9.43
2019-05-19T11:08:34.366Z,10.17
2019-05-19T11:11:00.728Z,9.00
2019-05-19T11:13:27.669Z,9.30
2019-05-19T11:15:53.676Z,10.33
2019-05-19T11:18:19.713Z,7.77
2019-05-19T11:20:45.712Z,9.00
2019-05-19T11:23:11.702Z,8.23
2019-05-19T11:25:50.679Z,8.67
2019-05-19T11:28:05.686Z,8.67
2019-05-19T11:30:31.708Z,8.63
2019-05-19T11:32:57.696Z,13.33
2019-05-19T11:35:23.768Z,8.97
2019-05-19T11:37:49.748Z,7.77
2019-05-19T11:40:15.820Z,8.30
2019-05-19T11:42:41.859Z,8.40
2019-05-19T11:45:08.293Z,8.53
2019-05-19T11:47:34.410Z,8.60
2019-05-19T11:50:00.418Z,8.27
2019-05-19T11:52:26.469Z,8.13
2019-05-19T11:54:52.536Z,8.10
2019-05-19T11:57:18.546Z,7.80
2019-05-19T11:59:44.557Z,7.97
2019-05-19T12:02:10.577Z,9.20
2019-05-19T12:04:36.593Z,8.77
2019-05-19T12:07:02.603Z,8.07
2019-05-19T12:09:28.592Z,7.80
2019-05-19T12:11:54.607Z,6.70
2019-05-19T12:14:20.663Z,8.07
2019-05-19T12:16:46.867Z,7.30
2019-05-19T12:19:12.966Z,7.20
2019-05-19T12:21:38.978Z,8.30
2019-05-19T12:24:04.997Z,7.30
2019-05-19T12:26:30.992Z,8.30
2019-05-19T12:28:57.277Z,7.47
2019-05-19T12:31:23.285Z,7.23
2019-05-19T12:33:52.115Z,8.00
2019-05-19T12:36:17.296Z,7.40
2019-05-19T12:38:43.734Z,7.00
2019-05-19T12:41:09.838Z,9.10
2019-05-19T12:43:35.820Z,6.97
2019-05-19T12:46:01.899Z,6.93
2019-05-19T12:48:27.993Z,6.80
2019-05-19T12:50:54.014Z,7.77
2019-05-19T12:53:20.081Z,7.50
2019-05-19T12:55:46.192Z,8.90
2019-05-19T12:58:12.218Z,8.60
2019-05-19T13:00:38.327Z,8.47
2019-05-19T13:03:04.577Z,8.60
2019-05-19T13:05:30.633Z,8.40
2019-05-19T13:07:56.718Z,8.10
2019-05-19T13:10:22.798Z,8.43
2019-05-19T13:12:48.802Z,8.23
2019-05-19T13:15:15.647Z,9.23
2019-05-19T13:17:41.901Z,9.17
2019-05-19T13:20:08.343Z,8.57
2019-05-19T13:22:34.466Z,8.00
2019-05-19T13:25:00.453Z,8.77
2019-05-19T13:27:26.801Z,9.47
2019-05-19T13:29:52.952Z,9.00
2019-05-19T13:32:18.968Z,11.90
2019-05-19T13:34:45.065Z,9.20
2019-05-19T13:37:12.001Z,8.50
2019-05-19T13:39:38.067Z,7.67
2019-05-19T13:42:04.101Z,8.60
2019-05-19T13:44:30.153Z,8.90
2019-05-19T13:46:56.244Z,8.87
2019-05-19T13:49:22.266Z,9.53
2019-05-19T13:51:48.284Z,10.13
2019-05-19T13:54:14.323Z,8.83
2019-05-19T13:56:40.321Z,8.57
2019-05-19T13:59:06.348Z,8.30
2019-05-19T14:01:32.376Z,9.30
2019-05-19T14:03:58.507Z,8.90
2019-05-19T14:06:24.492Z,9.23
2019-05-19T14:08:50.484Z,9.10
2019-05-19T14:11:16.508Z,8.60
2019-05-19T14:13:42.496Z,8.53
2019-05-19T14:16:08.512Z,8.70
2019-05-19T14:18:34.562Z,9.23
2019-05-19T14:21:00.650Z,8.80
2019-05-19T14:23:26.686Z,8.80
2019-05-19T14:25:52.756Z,9.20
2019-05-19T14:28:18.912Z,9.80
2019-05-19T14:30:44.917Z,9.53
2019-05-19T14:33:11.107Z,8.97
2019-05-19T14:35:37.248Z,9.17
2019-05-19T14:38:03.292Z,12.57
2019-05-19T14:40:29.305Z,11.80
2019-05-19T14:42:57.275Z,13.90
2019-05-19T14:45:23.573Z,12.47
2019-05-19T14:47:49.901Z,12.07
2019-05-19T14:50:16.214Z,11.60
2019-05-19T14:52:42.201Z,12.53
2019-05-19T14:55:08.316Z,13.13
2019-05-19T14:57:44.533Z,12.20
2019-05-19T15:00:04.240Z,13.00
2019-05-19T15:02:30.264Z,13.27
2019-05-19T15:04:56.262Z,12.50
2019-05-19T15:07:22.313Z,11.60
2019-05-19T15:09:48.357Z,11.97
2019-05-19T15:12:14.412Z,11.80
2019-05-19T15:14:40.438Z,11.50
2019-05-19T15:17:06.428Z,10.20
2019-05-19T15:19:32.483Z,11.27
2019-05-19T15:21:58.459Z,11.80
2019-05-19T15:24:24.457Z,10.87
2019-05-19T15:26:50.556Z,11.20
2019-05-19T15:29:16.681Z,10.50
2019-05-19T15:31:42.672Z,10.97
2019-05-19T15:34:08.662Z,9.57
2019-05-19T15:36:34.699Z,10.73
2019-05-19T15:39:00.709Z,11.40
2019-05-19T15:41:26.798Z,10.53
2019-05-19T15:43:52.892Z,10.40
2019-05-19T15:46:18.919Z,10.47
2019-05-19T15:48:45.034Z,9.97
2019-05-19T15:51:11.067Z,10.90
2019-05-19T15:53:37.064Z,10.70
2019-05-19T15:56:03.088Z,9.77
2019-05-19T15:58:29.144Z,9.60
2019-05-19T16:00:55.212Z,10.20
2019-05-19T16:03:23.477Z,10.47
2019-05-19T16:05:49.570Z,9.87
2019-05-19T16:08:15.590Z,9.67
2019-05-19T16:10:41.804Z,10.10
2019-05-19T16:13:08.072Z,10.07
2019-05-19T16:15:34.287Z,10.10
2019-05-19T16:18:00.369Z,11.13
2019-05-19T16:20:26.498Z,11.77
2019-05-19T16:22:52.541Z,11.30
2019-05-19T16:25:18.578Z,10.80
2019-05-19T16:27:44.608Z,11.60
2019-05-19T16:30:11.102Z,10.60
2019-05-19T16:32:37.308Z,12.20
2019-05-19T16:35:05.049Z,11.50
2019-05-19T16:37:31.153Z,12.03
2019-05-19T16:39:57.249Z,11.83
2019-05-19T16:42:23.274Z,11.30
2019-05-19T16:44:49.273Z,11.73
2019-05-19T16:47:15.618Z,11.90
2019-05-19T16:49:41.785Z,12.60
2019-05-19T16:52:08.394Z,12.87
2019-05-19T16:54:36.360Z,14.73
2019-05-19T16:57:02.503Z,14.70
2019-05-19T16:59:28.585Z,15.10
2019-05-19T17:01:54.677Z,15.50
2019-05-19T17:04:20.694Z,14.93
2019-05-19T17:06:46.923Z,13.60
2019-05-19T17:09:13.052Z,13.03
2019-05-19T17:11:39.050Z,14.30
2019-05-19T17:14:05.113Z,14.47
2019-05-19T17:16:31.109Z,15.10
2019-05-19T17:18:57.145Z,13.40
2019-05-19T17:21:23.138Z,13.50
2019-05-19T17:23:49.184Z,14.40
2019-05-19T17:26:15.263Z,15.73
2019-05-19T17:28:41.294Z,14.57
2019-05-19T17:31:07.889Z,13.50
2019-05-19T17:33:34.050Z,12.90
2019-05-19T17:36:00.100Z,12.23
2019-05-19T17:38:26.219Z,11.57
2019-05-19T17:40:52.195Z,10.63
2019-05-19T17:43:18.234Z,11.60
2019-05-19T17:45:44.231Z,11.10
2019-05-19T17:48:25.439Z,11.97
2019-05-19T17:50:38.765Z,12.30
2019-05-19T17:53:04.888Z,11.70
2019-05-19T17:55:32.140Z,11.07
2019-05-19T17:57:59.744Z,12.57
2019-05-19T18:00:31.821Z,11.30
2019-05-19T18:02:57.849Z,12.13
2019-05-19T18:05:23.892Z,12.90
2019-05-19T18:07:49.995Z,10.20
2019-05-19T18:10:16.149Z,11.97
2019-05-19T18:12:42.153Z,11.27
2019-05-19T18:15:08.351Z,11.23
2019-05-19T18:17:34.373Z,10.30
2019-05-19T18:20:00.422Z,10.47
2019-05-19T18:22:26.480Z,9.73
2019-05-19T18:24:52.780Z,9.83
2019-05-19T18:27:18.806Z,9.83
2019-05-19T18:29:44.846Z,9.97
2019-05-19T18:32:10.949Z,9.33
2019-05-19T18:34:37.356Z,9.53
2019-05-19T18:37:03.561Z,10.93
2019-05-19T18:39:29.731Z,10.20
2019-05-19T18:41:55.743Z,11.40
2019-05-19T18:44:21.849Z,10.57
2019-05-19T18:46:47.874Z,11.57
2019-05-19T18:49:13.906Z,11.07
2019-05-19T18:51:40.085Z,10.27
2019-05-19T18:54:06.113Z,9.23
2019-05-19T18:56:32.235Z,12.70
2019-05-19T18:58:58.362Z,11.43
2019-05-19T19:01:24.592Z,12.10
2019-05-19T19:03:50.698Z,11.33
2019-05-19T19:06:16.812Z,12.17
2019-05-19T19:08:43.181Z,10.70
2019-05-19T19:11:09.181Z,11.37
2019-05-19T19:13:35.189Z,11.60
2019-05-19T19:16:01.216Z,11.23
2019-05-19T19:18:27.212Z,10.57
2019-05-19T19:20:53.241Z,11.30
2019-05-19T19:23:19.325Z,10.90
2019-05-19T19:25:45.314Z,11.37
2019-05-19T19:28:11.302Z,11.43
2019-05-19T19:30:37.320Z,11.27
2019-05-19T19:33:03.607Z,10.67
2019-05-19T19:35:38.811Z,9.50
2019-05-19T19:37:57.585Z,9.53
2019-05-19T19:40:28.231Z,9.90
2019-05-19T19:42:54.576Z,10.37
2019-05-19T19:45:20.603Z,9.40
2019-05-19T19:47:46.644Z,10.73
2019-05-19T19:50:12.653Z,10.50
2019-05-19T19:52:38.684Z,9.40
2019-05-19T19:55:04.771Z,10.90
2019-05-19T19:57:30.796Z,10.90
2019-05-19T19:59:56.790Z,11.10
2019-05-19T20:02:22.812Z,11.13
2019-05-19T20:04:48.855Z,11.60
2019-05-19T20:07:16.176Z,11.43
2019-05-19T20:09:42.312Z,12.43
2019-05-19T20:12:08.460Z,11.00
2019-05-19T20:14:34.639Z,12.70
2019-05-19T20:17:00.677Z,12.70
2019-05-19T20:19:26.770Z,13.37
2019-05-19T20:21:53.064Z,13.97
2019-05-19T20:24:19.370Z,15.93
2019-05-19T20:26:45.388Z,15.90
2019-05-19T20:29:11.372Z,17.27
2019-05-19T20:31:37.417Z,26.40
2019-05-19T20:34:03.786Z,37.43
2019-05-19T20:36:29.855Z,89.67
2019-05-19T20:38:55.916Z,56.77
2019-05-19T20:41:22.039Z,83.57
2019-05-19T20:43:48.052Z,127.37
2019-05-19T20:46:14.392Z,107.63
2019-05-19T20:48:40.489Z,44.80
2019-05-19T20:51:06.541Z,74.57
2019-05-19T20:53:32.801Z,36.43
2019-05-19T20:55:59.077Z,39.37
2019-05-19T20:58:27.279Z,29.30
2019-05-19T21:00:53.491Z,28.40
2019-05-19T21:03:19.514Z,24.37
2019-05-19T21:05:45.509Z,23.20
2019-05-19T21:08:11.572Z,23.30
2019-05-19T21:10:37.552Z,22.07
2019-05-19T21:13:03.576Z,24.40
2019-05-19T21:15:29.823Z,23.63
2019-05-19T21:17:55.962Z,25.83
2019-05-19T21:20:22.129Z,24.87
2019-05-19T21:22:48.332Z,26.83
2019-05-19T21:25:14.545Z,28.27
2019-05-19T21:27:40.652Z,24.50
2019-05-19T21:30:07.313Z,23.73
2019-05-19T21:32:33.363Z,24.60
2019-05-19T21:34:59.483Z,83.03
2019-05-19T21:37:25.698Z,60.67
2019-05-19T21:39:51.704Z,71.43
2019-05-19T21:42:17.725Z,78.00
2019-05-19T21:44:43.772Z,62.33
2019-05-19T21:47:09.759Z,75.87
2019-05-19T21:49:35.780Z,112.77
2019-05-19T21:52:01.806Z,113.33
2019-05-19T21:54:27.879Z,38.50
2019-05-19T21:56:53.912Z,34.00
2019-05-19T21:59:19.927Z,32.43
2019-05-19T22:01:46.207Z,25.40
2019-05-19T22:04:12.280Z,22.60
2019-05-19T22:06:40.442Z,21.37
2019-05-19T22:09:15.168Z,21.30
2019-05-19T22:11:41.190Z,22.87
2019-05-19T22:14:07.317Z,21.87
2019-05-19T22:16:33.342Z,23.87
2019-05-19T22:18:59.374Z,22.33
2019-05-19T22:21:25.700Z,33.83
2019-05-19T22:23:51.824Z,23.50
2019-05-19T22:26:17.906Z,24.90
2019-05-19T22:28:43.984Z,23.13
2019-05-19T22:31:10.279Z,25.57
2019-05-19T22:33:36.278Z,25.27
2019-05-19T22:36:02.378Z,26.03
2019-05-19T22:38:28.482Z,29.40
2019-05-19T22:40:54.526Z,29.80
2019-05-19T22:43:20.508Z,27.60
2019-05-19T22:45:46.533Z,30.47
2019-05-19T22:48:12.529Z,30.93
2019-05-19T22:50:38.585Z,28.80
2019-05-19T22:53:04.680Z,26.07
2019-05-19T22:55:30.751Z,27.63
2019-05-19T22:57:56.783Z,29.70
2019-05-19T23:00:23.910Z,27.63
2019-05-19T23:02:49.968Z,31.10
2019-05-19T23:05:16.355Z,28.70
2019-05-19T23:07:42.367Z,25.80
2019-05-19T23:10:08.762Z,25.23
2019-05-19T23:12:34.769Z,25.83
2019-05-19T23:15:00.800Z,24.30
2019-05-19T23:17:26.791Z,25.23
2019-05-19T23:19:52.956Z,23.20
2019-05-19T23:22:18.973Z,27.43
2019-05-19T23:24:44.988Z,27.43
2019-05-19T23:27:11.025Z,22.93
2019-05-19T23:29:37.015Z,27.20
2019-05-19T23:32:07.066Z,25.43
2019-05-19T23:34:30.944Z,26.73
2019-05-19T23:36:56.964Z,25.63
2019-05-19T23:39:22.985Z,22.10
2019-05-19T23:41:48.962Z,26.70
2019-05-19T23:44:15.017Z,33.23
2019-05-19T23:46:41.078Z,34.67
2019-05-19T23:49:07.100Z,34.33
2019-05-19T23:51:33.091Z,34.27
2019-05-19T23:53:59.123Z,36.27
2019-05-19T23:56:25.109Z,38.27
2019-05-19T23:58:51.115Z,38.07
